createdAt,value
2022-12-05T00:00:35.629Z,15.63
2022-12-05T00:02:38.571Z,16.07
2022-12-05T00:04:41.671Z,16.47
2022-12-05T00:06:45.457Z,15.73
2022-12-05T00:08:50.212Z,15.33
2022-12-05T00:10:53.085Z,16.13
2022-12-05T00:12:55.932Z,15.53
2022-12-05T00:14:58.966Z,16.20
2022-12-05T00:17:01.925Z,14.77
2022-12-05T00:19:06.575Z,15.23
2022-12-05T00:21:14.613Z,15.23
2022-12-05T00:23:17.469Z,16.83
2022-12-05T00:25:21.848Z,15.07
2022-12-05T00:27:24.768Z,15.07
2022-12-05T00:29:27.833Z,15.23
2022-12-05T00:31:30.760Z,15.70
2022-12-05T00:33:33.783Z,14.80
2022-12-05T00:35:36.712Z,15.17
2022-12-05T00:37:39.623Z,14.93
2022-12-05T00:39:42.503Z,15.77
2022-12-05T00:41:46.774Z,14.23
2022-12-05T00:43:49.976Z,15.10
2022-12-05T00:45:53.009Z,15.10
2022-12-05T00:47:56.130Z,15.90
2022-12-05T00:49:59.275Z,16.17
2022-12-05T00:52:02.473Z,14.90
2022-12-05T00:54:07.320Z,15.40
2022-12-05T00:56:13.017Z,15.37
2022-12-05T00:58:17.374Z,15.47
2022-12-05T01:00:21.102Z,14.87
2022-12-05T01:02:24.262Z,15.70
2022-12-05T01:04:27.276Z,16.53
2022-12-05T01:06:30.322Z,14.83
2022-12-05T01:08:33.737Z,14.43
2022-12-05T01:10:36.659Z,15.87
2022-12-05T01:12:39.597Z,14.77
2022-12-05T01:14:43.950Z,15.90
2022-12-05T01:16:48.698Z,15.50
2022-12-05T01:18:51.788Z,14.83
2022-12-05T01:20:54.848Z,15.27
2022-12-05T01:22:57.693Z,14.97
2022-12-05T01:25:00.723Z,16.37
2022-12-05T01:27:03.797Z,14.80
2022-12-05T01:29:06.978Z,15.00
2022-12-05T01:31:19.195Z,16.17
2022-12-05T01:33:22.262Z,15.10
2022-12-05T01:35:25.339Z,15.30
2022-12-05T01:37:28.341Z,15.07
2022-12-05T01:39:31.414Z,14.97
2022-12-05T01:41:37.210Z,14.27
2022-12-05T01:43:56.011Z,14.80
2022-12-05T01:45:59.307Z,16.43
2022-12-05T01:48:07.076Z,14.87
2022-12-05T01:50:10.876Z,15.33
2022-12-05T01:52:19.361Z,15.30
2022-12-05T01:54:23.585Z,15.27
2022-12-05T01:56:26.640Z,15.00
2022-12-05T01:58:33.378Z,15.33
2022-12-05T02:00:36.337Z,15.90
2022-12-05T02:02:41.655Z,15.57
2022-12-05T02:04:56.699Z,14.67
2022-12-05T02:06:59.597Z,15.57
2022-12-05T02:09:02.709Z,16.67
2022-12-05T02:11:08.582Z,15.87
2022-12-05T02:13:32.401Z,15.20
2022-12-05T02:15:43.568Z,16.93
2022-12-05T02:17:55.321Z,15.37
2022-12-05T02:20:15.074Z,16.43
2022-12-05T02:23:05.988Z,16.60
2022-12-05T02:25:23.843Z,15.27
2022-12-05T02:28:13.863Z,15.67
2022-12-05T02:30:20.982Z,14.40
2022-12-05T02:32:39.237Z,14.90
2022-12-05T02:34:48.965Z,14.40
2022-12-05T02:36:58.447Z,14.27
2022-12-05T02:39:07.546Z,14.83
2022-12-05T02:41:20.253Z,14.70
2022-12-05T02:43:27.826Z,14.17
2022-12-05T02:45:35.545Z,14.47
2022-12-05T02:47:42.361Z,15.10
2022-12-05T02:49:45.361Z,14.30
2022-12-05T02:51:51.579Z,14.73
2022-12-05T02:53:58.497Z,14.00
2022-12-05T02:56:02.174Z,14.23
2022-12-05T02:58:10.048Z,14.20
2022-12-05T03:00:14.015Z,14.10
2022-12-05T03:02:30.007Z,13.77
2022-12-05T03:04:34.079Z,14.40
2022-12-05T03:06:42.598Z,14.83
2022-12-05T03:08:49.922Z,14.17
2022-12-05T03:10:54.955Z,14.73
2022-12-05T03:13:01.544Z,14.93
2022-12-05T03:15:09.902Z,14.00
2022-12-05T03:17:18.375Z,12.93
2022-12-05T03:19:28.457Z,13.50
2022-12-05T03:21:36.736Z,14.57
2022-12-05T03:23:43.134Z,13.73
2022-12-05T03:25:53.371Z,13.70
2022-12-05T03:28:07.037Z,13.37
2022-12-05T03:30:11.865Z,13.67
2022-12-05T03:32:22.967Z,12.67
2022-12-05T03:34:49.415Z,13.60
2022-12-05T03:36:54.600Z,13.50
2022-12-05T03:39:01.821Z,12.67
2022-12-05T03:41:10.497Z,12.77
2022-12-05T03:43:23.482Z,11.87
2022-12-05T03:45:32.985Z,12.60
2022-12-05T03:47:43.358Z,12.87
2022-12-05T03:49:52.277Z,11.23
2022-12-05T03:52:13.282Z,12.43
2022-12-05T03:54:23.362Z,11.40
2022-12-05T03:56:31.449Z,11.67
2022-12-05T03:58:38.843Z,11.20
2022-12-05T04:00:46.234Z,10.90
2022-12-05T04:02:54.448Z,10.83
2022-12-05T04:05:06.540Z,11.17
2022-12-05T04:07:11.238Z,10.47
2022-12-05T04:09:18.910Z,11.03
2022-12-05T04:11:25.978Z,10.50
2022-12-05T04:13:34.520Z,10.90
2022-12-05T04:15:51.467Z,10.10
2022-12-05T04:17:59.401Z,11.47
2022-12-05T04:20:25.583Z,11.07
2022-12-05T04:22:28.852Z,10.43
2022-12-05T04:24:50.843Z,9.50
2022-12-05T04:27:06.000Z,9.57
2022-12-05T04:29:14.941Z,9.87
2022-12-05T04:31:23.737Z,9.67
2022-12-05T04:33:33.455Z,10.00
2022-12-05T04:35:42.792Z,11.10
2022-12-05T04:37:50.806Z,10.60
2022-12-05T04:39:59.282Z,10.17
2022-12-05T04:42:07.510Z,9.37
2022-12-05T04:44:13.565Z,9.57
2022-12-05T04:46:19.365Z,9.10
2022-12-05T04:48:25.148Z,11.03
2022-12-05T04:50:32.600Z,9.07
2022-12-05T04:52:37.913Z,8.77
2022-12-05T04:54:46.406Z,9.30
2022-12-05T04:56:55.652Z,9.53
2022-12-05T04:59:02.592Z,8.87
2022-12-05T05:01:10.485Z,8.07
2022-12-05T05:03:19.322Z,7.80
2022-12-05T05:05:23.802Z,7.97
2022-12-05T05:07:26.859Z,8.37
2022-12-05T05:09:31.785Z,8.17
2022-12-05T05:11:36.308Z,8.30
2022-12-05T05:13:39.234Z,8.73
2022-12-05T05:15:42.127Z,8.63
2022-12-05T05:17:45.114Z,9.10
2022-12-05T05:19:48.223Z,8.17
2022-12-05T05:21:52.041Z,8.50
2022-12-05T05:23:55.269Z,7.80
2022-12-05T05:25:59.482Z,7.10
2022-12-05T05:28:02.557Z,7.40
2022-12-05T05:30:06.443Z,8.50
2022-12-05T05:32:09.404Z,7.97
2022-12-05T05:34:15.791Z,8.07
2022-12-05T05:36:19.601Z,7.63
2022-12-05T05:38:22.557Z,8.23
2022-12-05T05:40:25.423Z,8.53
2022-12-05T05:42:29.760Z,13.77
2022-12-05T05:44:32.651Z,10.20
2022-12-05T05:46:36.608Z,11.10
2022-12-05T05:48:39.764Z,11.13
2022-12-05T05:50:42.602Z,9.23
2022-12-05T05:52:45.504Z,8.57
2022-12-05T05:54:48.473Z,7.90
2022-12-05T05:56:51.497Z,7.93
2022-12-05T05:59:00.918Z,7.73
2022-12-05T06:01:05.328Z,8.10
2022-12-05T06:03:08.383Z,7.83
2022-12-05T06:05:11.529Z,7.00
2022-12-05T06:07:14.499Z,7.93
2022-12-05T06:09:17.583Z,7.97
2022-12-05T06:11:25.967Z,7.87
2022-12-05T06:13:29.418Z,7.60
2022-12-05T06:15:33.648Z,7.20
2022-12-05T06:17:36.629Z,7.27
2022-12-05T06:19:39.519Z,7.37
2022-12-05T06:21:42.426Z,7.40
2022-12-05T06:23:45.840Z,7.40
2022-12-05T06:25:49.935Z,7.67
2022-12-05T06:27:52.833Z,7.77
2022-12-05T06:29:55.963Z,8.27
2022-12-05T06:32:00.410Z,7.10
2022-12-05T06:34:04.730Z,7.90
2022-12-05T06:36:09.750Z,7.47
2022-12-05T06:38:12.900Z,7.43
2022-12-05T06:40:16.079Z,7.63
2022-12-05T06:42:18.956Z,7.57
2022-12-05T06:44:22.093Z,7.87
2022-12-05T06:46:26.255Z,8.70
2022-12-05T06:48:30.574Z,9.77
2022-12-05T06:50:33.485Z,9.13
2022-12-05T06:52:36.380Z,8.70
2022-12-05T06:54:39.259Z,7.73
2022-12-05T06:56:42.120Z,8.10
2022-12-05T06:58:46.258Z,8.00
2022-12-05T07:01:06.472Z,7.37
2022-12-05T07:03:12.279Z,8.20
2022-12-05T07:05:16.601Z,7.60
2022-12-05T07:07:19.507Z,7.90
2022-12-05T07:09:45.705Z,7.73
2022-12-05T07:11:49.150Z,8.60
2022-12-05T07:13:52.118Z,7.70
2022-12-05T07:15:55.098Z,13.30
2022-12-05T07:17:57.986Z,10.20
2022-12-05T07:20:01.245Z,9.93
2022-12-05T07:22:09.489Z,8.97
2022-12-05T07:24:16.795Z,8.23
2022-12-05T07:26:21.763Z,8.30
2022-12-05T07:28:24.824Z,8.23
2022-12-05T07:30:27.906Z,7.47
2022-12-05T07:32:33.869Z,7.57
2022-12-05T07:34:38.698Z,8.77
2022-12-05T07:36:41.766Z,8.03
2022-12-05T07:38:46.573Z,7.20
2022-12-05T07:40:49.426Z,7.13
2022-12-05T07:42:53.398Z,8.40
2022-12-05T07:44:56.357Z,8.03
2022-12-05T07:46:59.623Z,8.67
2022-12-05T07:49:02.627Z,8.13
2022-12-05T07:51:07.251Z,8.53
2022-12-05T07:53:10.196Z,8.67
2022-12-05T07:55:14.376Z,8.23
2022-12-05T07:57:17.600Z,8.47
2022-12-05T07:59:20.675Z,7.23
2022-12-05T08:01:25.776Z,8.40
2022-12-05T08:03:28.771Z,8.27
2022-12-05T08:05:31.638Z,7.77
2022-12-05T08:07:34.704Z,7.87
2022-12-05T08:09:37.734Z,8.30
2022-12-05T08:11:42.277Z,7.57
2022-12-05T08:13:46.241Z,7.93
2022-12-05T08:15:49.212Z,7.03
2022-12-05T08:17:52.228Z,7.70
2022-12-05T08:19:56.240Z,7.07
2022-12-05T08:21:59.449Z,6.97
2022-12-05T08:24:04.812Z,6.70
2022-12-05T08:26:09.477Z,7.20
2022-12-05T08:28:13.784Z,6.53
2022-12-05T08:30:16.694Z,7.60
2022-12-05T08:32:19.598Z,7.60
2022-12-05T08:34:22.497Z,7.00
2022-12-05T08:36:25.713Z,6.63
2022-12-05T08:38:28.727Z,6.67
2022-12-05T08:40:31.608Z,6.67
2022-12-05T08:42:34.596Z,7.60
2022-12-05T08:44:38.819Z,6.77
2022-12-05T08:46:41.844Z,6.83
2022-12-05T08:48:45.052Z,6.87
2022-12-05T08:50:48.425Z,6.90
2022-12-05T08:52:51.353Z,6.47
2022-12-05T08:54:54.389Z,7.20
2022-12-05T08:56:59.520Z,6.80
2022-12-05T08:59:05.744Z,6.77
2022-12-05T09:01:15.948Z,6.50
2022-12-05T09:03:18.883Z,6.43
2022-12-05T09:05:28.321Z,6.70
2022-12-05T09:07:32.205Z,6.23
2022-12-05T09:09:35.585Z,6.37
2022-12-05T09:11:44.009Z,6.83
2022-12-05T09:13:47.822Z,6.83
2022-12-05T09:15:50.744Z,6.43
2022-12-05T09:17:55.933Z,5.97
2022-12-05T09:19:58.805Z,6.27
2022-12-05T09:22:01.738Z,5.87
2022-12-05T09:24:05.054Z,5.90
2022-12-05T09:26:11.896Z,5.70
2022-12-05T09:28:14.894Z,5.67
2022-12-05T09:30:17.835Z,6.20
2022-12-05T09:32:20.908Z,5.80
2022-12-05T09:34:26.015Z,6.50
2022-12-05T09:36:30.722Z,6.67
2022-12-05T09:38:33.879Z,6.47
2022-12-05T09:40:42.848Z,7.33
2022-12-05T09:42:57.520Z,7.77
2022-12-05T09:45:06.949Z,7.40
2022-12-05T09:47:18.067Z,7.43
2022-12-05T09:49:22.776Z,7.70
2022-12-05T09:51:28.369Z,7.67
2022-12-05T09:53:34.994Z,8.10
2022-12-05T09:55:45.291Z,8.07
2022-12-05T09:57:52.239Z,8.70
2022-12-05T09:59:55.655Z,8.83
2022-12-05T10:02:07.296Z,9.30
2022-12-05T10:04:26.687Z,10.07
2022-12-05T10:06:35.986Z,10.10
2022-12-05T10:08:48.363Z,10.50
2022-12-05T10:11:01.112Z,11.30
2022-12-05T10:13:22.649Z,10.97
2022-12-05T10:15:33.411Z,10.97
2022-12-05T10:17:39.511Z,10.27
2022-12-05T10:19:47.434Z,11.40
2022-12-05T10:21:58.990Z,11.07
2022-12-05T10:24:04.386Z,9.90
2022-12-05T10:26:11.067Z,9.73
2022-12-05T10:28:19.408Z,7.93
2022-12-05T10:30:24.271Z,8.53
2022-12-05T10:32:32.784Z,8.40
2022-12-05T10:34:40.100Z,8.50
2022-12-05T10:36:46.103Z,7.70
2022-12-05T10:38:50.867Z,8.10
2022-12-05T10:40:58.116Z,8.40
2022-12-05T10:43:01.194Z,7.83
2022-12-05T10:45:06.892Z,8.47
2022-12-05T10:47:10.141Z,7.57
2022-12-05T10:49:14.042Z,7.60
2022-12-05T10:51:32.539Z,8.47
2022-12-05T10:53:41.633Z,7.30
2022-12-05T10:56:21.611Z,8.00
2022-12-05T10:58:17.516Z,7.70
2022-12-05T11:00:25.302Z,8.20
2022-12-05T11:02:31.274Z,8.77
2022-12-05T11:04:44.424Z,8.53
2022-12-05T11:06:56.780Z,9.30
2022-12-05T11:09:05.456Z,9.00
2022-12-05T11:11:20.256Z,8.80
2022-12-05T11:13:26.641Z,9.17
2022-12-05T11:15:30.823Z,9.73
2022-12-05T11:17:35.868Z,9.33
2022-12-05T11:19:39.738Z,9.40
2022-12-05T11:21:44.090Z,9.40
2022-12-05T11:23:47.214Z,9.03
2022-12-05T11:25:50.235Z,10.07
2022-12-05T11:27:58.344Z,9.23
2022-12-05T11:30:16.256Z,10.00
2022-12-05T11:32:21.354Z,9.83
2022-12-05T11:34:28.258Z,9.40
2022-12-05T11:36:40.372Z,9.70
2022-12-05T11:38:43.671Z,9.83
2022-12-05T11:40:54.514Z,10.03
2022-12-05T11:43:20.833Z,9.47
2022-12-05T11:45:42.164Z,10.53
2022-12-05T11:48:22.739Z,10.00
2022-12-05T11:50:37.068Z,9.93
2022-12-05T11:52:53.278Z,9.77
2022-12-05T11:55:07.162Z,10.00
2022-12-05T11:57:17.994Z,10.00
2022-12-05T11:59:45.012Z,10.10
2022-12-05T12:01:54.838Z,10.23
2022-12-05T12:04:32.454Z,9.87
2022-12-05T12:06:49.003Z,10.47
2022-12-05T12:09:05.970Z,10.70
2022-12-05T12:11:16.501Z,10.33
2022-12-05T12:13:30.841Z,10.57
2022-12-05T12:15:53.836Z,10.57
2022-12-05T12:18:06.168Z,9.60
2022-12-05T12:20:23.472Z,11.30
2022-12-05T12:22:45.748Z,10.17
2022-12-05T12:25:03.516Z,10.17
2022-12-05T12:27:16.951Z,11.03
2022-12-05T12:29:32.110Z,11.30
2022-12-05T12:32:04.515Z,10.47
2022-12-05T12:34:19.319Z,12.50
2022-12-05T12:36:27.487Z,11.97
2022-12-05T12:39:08.421Z,12.87
2022-12-05T12:41:20.276Z,11.37
2022-12-05T12:43:56.309Z,10.77
2022-12-05T12:46:22.867Z,12.23
2022-12-05T12:48:42.848Z,10.13
2022-12-05T12:50:51.748Z,11.90
2022-12-05T12:53:24.497Z,12.13
2022-12-05T12:55:37.556Z,10.80
2022-12-05T12:57:57.726Z,9.80
2022-12-05T13:00:05.657Z,9.87
2022-12-05T13:02:16.121Z,8.63
2022-12-05T13:04:25.348Z,9.43
2022-12-05T13:06:31.292Z,8.53
2022-12-05T13:08:40.408Z,9.83
2022-12-05T13:10:45.073Z,9.77
2022-12-05T13:12:49.311Z,10.03
2022-12-05T13:14:56.651Z,9.87
2022-12-05T13:17:01.390Z,10.70
2022-12-05T13:19:07.180Z,11.70
2022-12-05T13:21:11.991Z,11.33
2022-12-05T13:23:17.244Z,11.90
2022-12-05T13:25:25.452Z,12.43
2022-12-05T13:27:29.265Z,11.47
2022-12-05T13:29:35.990Z,13.13
2022-12-05T13:31:42.165Z,23.77
2022-12-05T13:33:47.621Z,12.43
2022-12-05T13:36:10.681Z,11.77
2022-12-05T13:38:41.227Z,12.40
2022-12-05T13:41:10.725Z,13.60
2022-12-05T13:43:15.863Z,13.77
2022-12-05T13:45:21.145Z,12.80
2022-12-05T13:47:32.157Z,13.90
2022-12-05T13:49:44.308Z,12.77
2022-12-05T13:51:47.984Z,12.77
2022-12-05T13:54:01.546Z,13.13
2022-12-05T13:56:07.702Z,12.57
2022-12-05T13:58:42.953Z,12.17
2022-12-05T14:00:46.322Z,11.23
2022-12-05T14:02:54.391Z,11.87
2022-12-05T14:04:57.382Z,13.73
2022-12-05T14:07:00.387Z,13.47
2022-12-05T14:09:05.777Z,14.60
2022-12-05T14:11:11.900Z,13.60
2022-12-05T14:13:43.560Z,13.47
2022-12-05T14:15:48.133Z,13.30
2022-12-05T14:17:52.083Z,12.73
2022-12-05T14:20:19.896Z,12.20
2022-12-05T14:22:40.397Z,12.93
2022-12-05T14:24:55.782Z,13.47
2022-12-05T14:27:08.644Z,12.93
2022-12-05T14:29:33.087Z,13.07
2022-12-05T14:31:46.691Z,12.30
2022-12-05T14:34:06.170Z,13.33
2022-12-05T14:36:16.962Z,13.10
2022-12-05T14:38:28.180Z,12.13
2022-12-05T14:40:34.936Z,12.47
2022-12-05T14:42:42.423Z,12.00
2022-12-05T14:44:49.812Z,13.07
2022-12-05T14:46:52.782Z,12.87
2022-12-05T14:48:56.169Z,14.60
2022-12-05T14:51:01.076Z,14.33
2022-12-05T14:53:23.038Z,12.83
2022-12-05T14:55:27.187Z,13.10
2022-12-05T14:57:33.648Z,12.53
2022-12-05T14:59:45.457Z,12.80
2022-12-05T15:01:52.762Z,14.30
2022-12-05T15:04:11.246Z,13.90
2022-12-05T15:06:17.956Z,13.07
2022-12-05T15:08:22.619Z,14.37
2022-12-05T15:10:28.818Z,12.30
2022-12-05T15:12:39.772Z,11.40
2022-12-05T15:14:54.595Z,10.63
2022-12-05T15:17:00.733Z,11.43
2022-12-05T15:19:08.214Z,11.67
2022-12-05T15:21:19.219Z,11.00
2022-12-05T15:23:42.288Z,11.43
2022-12-05T15:25:45.212Z,11.20
2022-12-05T15:27:55.975Z,14.90
2022-12-05T15:29:59.909Z,12.70
2022-12-05T15:32:06.149Z,13.77
2022-12-05T15:34:17.410Z,11.20
2022-12-05T15:36:24.666Z,11.13
2022-12-05T15:38:32.087Z,11.40
2022-12-05T15:40:37.823Z,11.67
2022-12-05T15:42:43.884Z,11.33
2022-12-05T15:44:48.154Z,11.20
2022-12-05T15:46:53.767Z,11.10
2022-12-05T15:48:59.607Z,11.83
2022-12-05T15:51:03.934Z,11.17
2022-12-05T15:53:12.848Z,11.40
2022-12-05T15:55:19.908Z,11.33
2022-12-05T15:57:29.454Z,11.83
2022-12-05T15:59:37.165Z,11.97
2022-12-05T16:01:46.381Z,12.83
2022-12-05T16:03:53.919Z,12.90
2022-12-05T16:06:00.606Z,12.40
2022-12-05T16:08:04.336Z,11.30
2022-12-05T16:10:14.464Z,11.40
2022-12-05T16:12:26.076Z,10.80
2022-12-05T16:14:58.918Z,10.10
2022-12-05T16:17:02.694Z,11.53
2022-12-05T16:19:07.446Z,10.53
2022-12-05T16:21:37.854Z,11.10
2022-12-05T16:23:43.982Z,11.20
2022-12-05T16:25:46.920Z,11.20
2022-12-05T16:27:58.234Z,10.80
2022-12-05T16:30:20.037Z,11.43
2022-12-05T16:32:26.429Z,11.70
2022-12-05T16:34:30.874Z,11.67
2022-12-05T16:36:34.630Z,11.00
2022-12-05T16:38:40.053Z,10.90
2022-12-05T16:40:55.734Z,10.97
2022-12-05T16:43:03.364Z,10.17
2022-12-05T16:45:07.389Z,10.63
2022-12-05T16:47:23.979Z,10.07
2022-12-05T16:49:39.998Z,9.90
2022-12-05T16:51:53.941Z,10.33
2022-12-05T16:53:57.990Z,19.90
2022-12-05T16:56:01.631Z,20.60
2022-12-05T16:58:05.434Z,12.73
2022-12-05T17:00:14.573Z,19.13
2022-12-05T17:02:20.875Z,15.00
2022-12-05T17:04:23.937Z,16.87
2022-12-05T17:06:29.422Z,13.37
2022-12-05T17:08:32.307Z,10.80
2022-12-05T17:10:35.277Z,11.70
2022-12-05T17:12:39.467Z,10.10
2022-12-05T17:14:43.979Z,9.50
2022-12-05T17:16:47.056Z,13.13
2022-12-05T17:18:50.028Z,9.50
2022-12-05T17:20:57.148Z,10.17
2022-12-05T17:23:01.524Z,9.13
2022-12-05T17:25:04.630Z,14.17
2022-12-05T17:27:07.595Z,10.57
2022-12-05T17:29:11.564Z,10.17
2022-12-05T17:31:17.354Z,10.63
2022-12-05T17:33:20.870Z,9.77
2022-12-05T17:35:25.265Z,12.53
2022-12-05T17:37:28.220Z,12.87
2022-12-05T17:39:32.670Z,10.20
2022-12-05T17:41:35.734Z,10.00
2022-12-05T17:43:38.806Z,9.93
2022-12-05T17:45:41.838Z,10.10
2022-12-05T17:47:44.862Z,9.53
2022-12-05T17:49:47.750Z,9.23
2022-12-05T17:52:20.603Z,10.27
2022-12-05T17:54:16.512Z,10.03
2022-12-05T17:56:21.070Z,11.67
2022-12-05T17:58:23.920Z,19.70
2022-12-05T18:00:26.958Z,13.80
2022-12-05T18:02:30.118Z,10.73
2022-12-05T18:04:33.060Z,11.73
2022-12-05T18:06:36.040Z,12.20
2022-12-05T18:08:39.907Z,12.60
2022-12-05T18:10:43.568Z,10.87
2022-12-05T18:12:48.447Z,9.90
2022-12-05T18:14:51.437Z,10.13
2022-12-05T18:16:54.334Z,9.73
2022-12-05T18:18:57.242Z,9.70
2022-12-05T18:21:08.247Z,10.00
2022-12-05T18:23:11.682Z,10.17
2022-12-05T18:25:14.565Z,11.17
2022-12-05T18:27:17.488Z,10.83
2022-12-05T18:29:21.699Z,10.13
2022-12-05T18:31:24.858Z,8.87
2022-12-05T18:33:27.742Z,9.60
2022-12-05T18:35:42.647Z,10.83
2022-12-05T18:37:45.534Z,9.97
2022-12-05T18:39:48.535Z,10.73
2022-12-05T18:41:51.495Z,12.93
2022-12-05T18:43:54.862Z,10.33
2022-12-05T18:46:00.910Z,23.80
2022-12-05T18:48:23.450Z,20.00
2022-12-05T18:50:26.853Z,11.10
2022-12-05T18:52:29.753Z,11.13
2022-12-05T18:54:32.648Z,10.50
2022-12-05T18:56:36.864Z,9.60
2022-12-05T18:58:39.833Z,14.00
2022-12-05T19:00:43.107Z,10.63
2022-12-05T19:02:48.996Z,11.03
2022-12-05T19:04:51.902Z,11.13
2022-12-05T19:06:56.005Z,13.00
2022-12-05T19:09:00.263Z,11.33
2022-12-05T19:11:05.369Z,11.57
2022-12-05T19:13:08.281Z,11.63
2022-12-05T19:15:11.907Z,12.27
2022-12-05T19:17:14.912Z,10.67
2022-12-05T19:19:20.199Z,11.53
2022-12-05T19:21:23.275Z,11.03
2022-12-05T19:23:26.542Z,11.67
2022-12-05T19:25:30.072Z,11.83
2022-12-05T19:27:33.000Z,12.77
2022-12-05T19:29:36.089Z,11.97
2022-12-05T19:31:39.470Z,11.40
2022-12-05T19:33:44.277Z,10.90
2022-12-05T19:35:48.545Z,12.33
2022-12-05T19:37:51.483Z,10.63
2022-12-05T19:39:54.354Z,10.70
2022-12-05T19:41:59.361Z,11.00
2022-12-05T19:44:02.902Z,10.60
2022-12-05T19:46:07.438Z,10.83
2022-12-05T19:48:10.444Z,15.33
2022-12-05T19:50:13.586Z,16.23
2022-12-05T19:52:18.136Z,43.60
2022-12-05T19:54:22.139Z,43.90
2022-12-05T19:56:26.893Z,17.53
2022-12-05T19:58:32.153Z,14.80
2022-12-05T20:00:35.125Z,11.13
2022-12-05T20:02:40.277Z,20.13
2022-12-05T20:04:44.011Z,11.50
2022-12-05T20:06:48.924Z,10.13
2022-12-05T20:08:55.899Z,12.67
2022-12-05T20:11:04.433Z,10.53
2022-12-05T20:13:24.141Z,10.70
2022-12-05T20:15:30.312Z,9.80
2022-12-05T20:17:33.299Z,10.40
2022-12-05T20:19:36.219Z,13.00
2022-12-05T20:21:40.479Z,10.50
2022-12-05T20:23:43.564Z,15.83
2022-12-05T20:25:47.870Z,10.30
2022-12-05T20:27:51.933Z,9.93
2022-12-05T20:29:54.878Z,11.33
2022-12-05T20:31:58.504Z,10.47
2022-12-05T20:34:01.790Z,10.93
2022-12-05T20:36:06.302Z,8.73
2022-12-05T20:38:09.215Z,10.20
2022-12-05T20:40:12.358Z,10.47
2022-12-05T20:42:16.722Z,11.40
2022-12-05T20:44:19.645Z,9.80
2022-12-05T20:46:23.327Z,9.03
2022-12-05T20:48:26.877Z,8.63
2022-12-05T20:50:29.768Z,8.50
2022-12-05T20:52:32.692Z,9.10
2022-12-05T20:54:35.619Z,8.80
2022-12-05T20:56:38.564Z,8.50
2022-12-05T20:58:45.666Z,9.17
2022-12-05T21:00:48.655Z,8.53
2022-12-05T21:02:51.701Z,8.57
2022-12-05T21:04:55.133Z,9.13
2022-12-05T21:06:58.048Z,8.10
2022-12-05T21:09:02.226Z,8.33
2022-12-05T21:11:05.561Z,8.37
2022-12-05T21:13:08.488Z,8.10
2022-12-05T21:15:12.960Z,8.10
2022-12-05T21:17:16.012Z,8.07
2022-12-05T21:19:19.735Z,9.23
2022-12-05T21:21:24.453Z,8.80
2022-12-05T21:23:27.787Z,8.53
2022-12-05T21:25:30.693Z,8.67
2022-12-05T21:27:33.783Z,8.20
2022-12-05T21:29:36.707Z,8.00
2022-12-05T21:31:42.715Z,7.97
2022-12-05T21:33:49.208Z,7.87
2022-12-05T21:35:55.615Z,8.20
2022-12-05T21:37:58.598Z,8.53
2022-12-05T21:40:01.599Z,8.20
2022-12-05T21:42:04.832Z,7.97
2022-12-05T21:44:08.298Z,7.80
2022-12-05T21:46:11.253Z,7.83
2022-12-05T21:48:15.493Z,8.20
2022-12-05T21:50:18.565Z,7.90
2022-12-05T21:52:21.900Z,7.53
2022-12-05T21:54:24.788Z,8.10
2022-12-05T21:56:28.403Z,7.73
2022-12-05T21:58:31.478Z,8.50
2022-12-05T22:00:34.713Z,9.00
2022-12-05T22:02:37.596Z,7.70
2022-12-05T22:04:41.874Z,8.00
2022-12-05T22:06:44.748Z,8.10
2022-12-05T22:08:47.705Z,7.30
2022-12-05T22:10:50.544Z,7.77
2022-12-05T22:12:53.463Z,7.63
2022-12-05T22:14:56.349Z,7.97
2022-12-05T22:16:59.285Z,7.67
2022-12-05T22:19:02.519Z,8.10
2022-12-05T22:21:08.329Z,7.77
2022-12-05T22:23:15.397Z,6.73
2022-12-05T22:25:19.711Z,7.60
2022-12-05T22:27:23.120Z,6.90
2022-12-05T22:29:25.978Z,7.90
2022-12-05T22:31:28.959Z,7.87
2022-12-05T22:33:32.560Z,6.57
2022-12-05T22:35:36.247Z,7.33
2022-12-05T22:37:40.468Z,7.63
2022-12-05T22:39:43.390Z,7.60
2022-12-05T22:41:46.299Z,8.03
2022-12-05T22:43:50.659Z,7.93
2022-12-05T22:45:53.804Z,7.87
2022-12-05T22:47:56.750Z,8.50
2022-12-05T22:49:59.703Z,7.27
2022-12-05T22:52:02.749Z,7.40
2022-12-05T22:54:07.177Z,8.30
2022-12-05T22:56:12.363Z,8.13
2022-12-05T22:58:15.567Z,8.50
2022-12-05T23:00:20.117Z,6.90
2022-12-05T23:02:23.376Z,9.40
2022-12-05T23:04:26.700Z,9.67
2022-12-05T23:06:30.990Z,8.47
2022-12-05T23:08:34.364Z,8.33
2022-12-05T23:10:39.253Z,7.37
2022-12-05T23:12:42.273Z,8.73
2022-12-05T23:14:45.243Z,8.70
2022-12-05T23:16:48.245Z,7.80
2022-12-05T23:18:53.520Z,7.20
2022-12-05T23:20:56.513Z,7.30
2022-12-05T23:22:59.492Z,7.80
2022-12-05T23:25:02.464Z,8.00
2022-12-05T23:27:09.798Z,8.83
2022-12-05T23:29:14.878Z,8.90
2022-12-05T23:31:18.284Z,9.27
2022-12-05T23:33:21.479Z,10.20
2022-12-05T23:35:24.497Z,9.57
2022-12-05T23:37:27.516Z,9.97
2022-12-05T23:39:30.668Z,9.20
2022-12-05T23:41:33.851Z,11.43
2022-12-05T23:43:38.650Z,11.07
2022-12-05T23:45:41.924Z,9.93
2022-12-05T23:47:44.929Z,11.30
2022-12-05T23:49:48.097Z,12.20
2022-12-05T23:51:51.100Z,10.77
2022-12-05T23:53:55.752Z,9.97
2022-12-05T23:56:02.252Z,11.17
2022-12-05T23:58:05.195Z,11.37
